createdAt,value
2018-09-05T00:02:06.586Z,20.50
2018-09-05T00:04:35.491Z,17.93
2018-09-05T00:07:03.754Z,21.47
2018-09-05T00:09:32.022Z,20.90
2018-09-05T00:12:00.264Z,24.07
2018-09-05T00:14:28.523Z,19.47
2018-09-05T00:16:56.978Z,19.53
2018-09-05T00:19:25.338Z,21.93
2018-09-05T00:21:53.578Z,20.30
2018-09-05T00:24:21.792Z,21.33
2018-09-05T00:26:51.096Z,21.83
2018-09-05T00:29:19.397Z,20.17
2018-09-05T00:31:47.728Z,20.87
2018-09-05T00:34:16.050Z,22.70
2018-09-05T00:36:44.307Z,20.87
2018-09-05T00:39:12.597Z,23.77
2018-09-05T00:41:41.034Z,20.27
2018-09-05T00:44:09.287Z,19.17
2018-09-05T00:46:37.519Z,19.43
2018-09-05T00:49:05.778Z,21.73
2018-09-05T00:51:34.292Z,22.23
2018-09-05T00:54:02.592Z,19.53
2018-09-05T00:56:30.989Z,22.63
2018-09-05T00:58:59.506Z,21.40
2018-09-05T01:01:28.544Z,23.70
2018-09-05T01:03:56.908Z,21.37
2018-09-05T01:06:25.990Z,25.00
2018-09-05T01:08:54.412Z,23.30
2018-09-05T01:11:22.636Z,21.60
2018-09-05T01:13:50.858Z,24.93
2018-09-05T01:16:19.388Z,22.50
2018-09-05T01:18:48.188Z,23.40
2018-09-05T01:21:20.862Z,22.07
2018-09-05T01:23:49.294Z,22.67
2018-09-05T01:26:17.884Z,22.50
2018-09-05T01:28:46.162Z,22.90
2018-09-05T01:31:15.093Z,24.10
2018-09-05T01:33:44.341Z,25.77
2018-09-05T01:36:15.257Z,23.53
2018-09-05T01:38:44.309Z,23.83
2018-09-05T01:41:14.098Z,29.17
2018-09-05T01:43:43.309Z,25.57
2018-09-05T01:46:11.838Z,29.60
2018-09-05T01:48:40.703Z,27.93
2018-09-05T01:51:09.655Z,32.63
2018-09-05T01:53:37.931Z,30.67
2018-09-05T01:56:06.716Z,36.37
2018-09-05T01:58:35.181Z,31.97
2018-09-05T02:01:03.479Z,35.07
2018-09-05T02:03:31.897Z,33.93
2018-09-05T02:06:00.170Z,35.50
2018-09-05T02:08:28.501Z,31.67
2018-09-05T02:10:57.319Z,33.43
2018-09-05T02:13:25.765Z,36.60
2018-09-05T02:15:54.086Z,32.97
2018-09-05T02:18:22.389Z,37.60
2018-09-05T02:20:50.638Z,34.37
2018-09-05T02:23:19.047Z,35.00
2018-09-05T02:25:47.353Z,33.43
2018-09-05T02:28:15.625Z,38.27
2018-09-05T02:30:43.842Z,40.30
2018-09-05T02:33:12.258Z,36.77
2018-09-05T02:35:40.750Z,33.03
2018-09-05T02:38:08.974Z,34.20
2018-09-05T02:40:37.601Z,34.40
2018-09-05T02:43:05.976Z,30.23
2018-09-05T02:45:34.615Z,37.27
2018-09-05T02:48:02.858Z,37.13
2018-09-05T02:50:31.162Z,31.27
2018-09-05T02:52:59.450Z,31.60
2018-09-05T02:55:33.553Z,33.47
2018-09-05T02:58:01.785Z,27.93
2018-09-05T03:00:30.181Z,28.57
2018-09-05T03:02:58.535Z,31.17
2018-09-05T03:05:26.880Z,31.20
2018-09-05T03:07:55.076Z,33.60
2018-09-05T03:10:23.369Z,33.50
2018-09-05T03:12:51.994Z,29.80
2018-09-05T03:15:20.453Z,31.87
2018-09-05T03:17:48.915Z,43.90
2018-09-05T03:20:17.110Z,43.53
2018-09-05T03:22:45.329Z,45.63
2018-09-05T03:25:13.566Z,47.73
2018-09-05T03:27:42.125Z,38.83
2018-09-05T03:30:11.442Z,50.63
2018-09-05T03:32:39.721Z,52.80
2018-09-05T03:35:07.892Z,57.20
2018-09-05T03:37:36.446Z,66.33
2018-09-05T03:40:05.085Z,32.33
2018-09-05T03:42:33.543Z,36.03
2018-09-05T03:45:01.777Z,29.97
2018-09-05T03:47:30.203Z,31.47
2018-09-05T03:49:58.462Z,39.00
2018-09-05T03:52:26.971Z,39.00
2018-09-05T03:54:55.446Z,58.47
2018-09-05T03:57:23.790Z,44.37
2018-09-05T03:59:52.250Z,55.30
2018-09-05T04:02:20.676Z,44.57
2018-09-05T04:04:48.870Z,38.27
2018-09-05T04:07:17.067Z,39.63
2018-09-05T04:09:45.266Z,47.67
2018-09-05T04:12:13.548Z,34.27
2018-09-05T04:14:41.911Z,33.50
2018-09-05T04:17:10.206Z,34.33
2018-09-05T04:19:38.394Z,37.87
2018-09-05T04:22:06.633Z,40.20
2018-09-05T04:24:34.762Z,30.43
2018-09-05T04:27:04.565Z,32.40
2018-09-05T04:29:33.025Z,29.03
2018-09-05T04:32:01.162Z,31.07
2018-09-05T04:34:29.374Z,27.33
2018-09-05T04:36:57.813Z,36.37
2018-09-05T04:39:26.869Z,26.13
2018-09-05T04:41:55.099Z,26.17
2018-09-05T04:44:23.317Z,26.27
2018-09-05T04:46:51.528Z,24.73
2018-09-05T04:49:19.946Z,25.70
2018-09-05T04:51:48.327Z,37.57
2018-09-05T04:54:16.578Z,41.47
2018-09-05T04:56:44.739Z,60.30
2018-09-05T04:59:13.065Z,69.57
2018-09-05T05:01:41.284Z,34.50
2018-09-05T05:04:09.483Z,53.50
2018-09-05T05:06:37.724Z,69.70
2018-09-05T05:09:08.956Z,50.67
2018-09-05T05:11:37.275Z,45.60
2018-09-05T05:14:06.575Z,60.23
2018-09-05T05:16:34.975Z,56.77
2018-09-05T05:19:03.271Z,40.27
2018-09-05T05:21:31.465Z,111.57
2018-09-05T05:23:59.751Z,33.77
2018-09-05T05:26:28.062Z,61.97
2018-09-05T05:28:56.279Z,51.97
2018-09-05T05:31:24.561Z,30.00
2018-09-05T05:33:52.808Z,98.20
2018-09-05T05:36:21.039Z,163.87
2018-09-05T05:38:49.422Z,111.40
2018-09-05T05:41:17.604Z,41.43
2018-09-05T05:43:46.206Z,62.40
2018-09-05T05:46:14.395Z,43.20
2018-09-05T05:48:42.726Z,38.33
2018-09-05T05:51:11.166Z,103.93
2018-09-05T05:53:40.004Z,58.03
2018-09-05T05:56:08.220Z,73.03
2018-09-05T05:58:36.406Z,68.80
2018-09-05T06:01:05.322Z,31.73
2018-09-05T06:03:33.739Z,36.10
2018-09-05T06:06:02.032Z,68.97
2018-09-05T06:08:30.179Z,36.70
2018-09-05T06:10:58.377Z,76.87
2018-09-05T06:13:27.642Z,71.90
2018-09-05T06:15:56.126Z,42.53
2018-09-05T06:18:24.369Z,52.83
2018-09-05T06:20:52.606Z,39.80
2018-09-05T06:23:20.822Z,33.37
2018-09-05T06:25:49.794Z,24.70
2018-09-05T06:28:18.189Z,44.77
2018-09-05T06:30:46.536Z,60.67
2018-09-05T06:33:14.563Z,68.83
2018-09-05T06:35:43.062Z,51.17
2018-09-05T06:38:11.344Z,91.17
2018-09-05T06:40:39.539Z,49.67
2018-09-05T06:43:07.812Z,39.70
2018-09-05T06:45:36.052Z,72.27
2018-09-05T06:48:04.918Z,27.63
2018-09-05T06:50:34.637Z,48.20
2018-09-05T06:53:03.095Z,62.00
2018-09-05T06:55:31.337Z,50.23
2018-09-05T06:57:59.801Z,34.10
2018-09-05T07:00:28.148Z,47.03
2018-09-05T07:02:56.424Z,49.50
2018-09-05T07:05:24.636Z,31.50
2018-09-05T07:07:52.850Z,44.03
2018-09-05T07:10:21.064Z,52.53
2018-09-05T07:12:50.055Z,31.37
2018-09-05T07:15:18.630Z,43.53
2018-09-05T07:17:46.829Z,35.27
2018-09-05T07:20:15.073Z,35.23
2018-09-05T07:22:43.299Z,38.10
2018-09-05T07:25:12.787Z,43.77
2018-09-05T07:27:41.321Z,41.77
2018-09-05T07:30:09.554Z,43.50
2018-09-05T07:32:37.818Z,35.87
2018-09-05T07:35:06.121Z,51.63
2018-09-05T07:37:34.558Z,36.70
2018-09-05T07:40:02.812Z,47.07
2018-09-05T07:42:31.106Z,39.57
2018-09-05T07:44:59.290Z,43.93
2018-09-05T07:47:27.648Z,35.37
2018-09-05T07:49:55.962Z,39.90
2018-09-05T07:52:24.268Z,42.63
2018-09-05T07:54:52.446Z,41.63
2018-09-05T07:57:20.633Z,42.80
2018-09-05T07:59:48.847Z,43.47
2018-09-05T08:02:17.137Z,44.93
2018-09-05T08:04:45.406Z,43.53
2018-09-05T08:07:13.693Z,44.43
2018-09-05T08:09:42.184Z,43.13
2018-09-05T08:12:10.494Z,48.03
2018-09-05T08:14:39.545Z,41.50
2018-09-05T08:17:07.755Z,43.30
2018-09-05T08:19:35.972Z,39.67
2018-09-05T08:22:04.376Z,46.10
2018-09-05T08:24:32.722Z,44.50
2018-09-05T08:27:01.141Z,41.33
2018-09-05T08:29:29.416Z,40.80
2018-09-05T08:31:58.519Z,43.37
2018-09-05T08:34:26.756Z,39.40
2018-09-05T08:36:55.110Z,39.27
2018-09-05T08:39:23.207Z,36.37
2018-09-05T08:41:51.453Z,38.00
2018-09-05T08:44:20.395Z,37.65
2018-09-05T08:46:48.836Z,41.85
2018-09-05T08:49:16.996Z,37.75
2018-09-05T08:51:45.221Z,37.80
2018-09-05T08:54:13.447Z,37.73
2018-09-05T08:56:41.785Z,38.67
2018-09-05T08:59:10.114Z,39.08
2018-09-05T09:01:38.770Z,41.95
2018-09-05T09:04:07.072Z,37.45
2018-09-05T09:06:35.361Z,38.28
2018-09-05T09:09:04.685Z,33.50
2018-09-05T09:11:33.063Z,35.90
2018-09-05T09:14:01.393Z,33.63
2018-09-05T09:16:30.057Z,35.20
2018-09-05T09:18:58.907Z,33.53
2018-09-05T09:21:27.371Z,41.30
2018-09-05T09:23:56.536Z,34.18
2018-09-05T09:26:24.815Z,30.77
2018-09-05T09:28:53.017Z,31.82
2018-09-05T09:31:21.303Z,38.63
2018-09-05T09:33:49.681Z,33.05
2018-09-05T09:36:17.909Z,33.02
2018-09-05T09:38:46.106Z,34.25
2018-09-05T09:41:14.675Z,31.57
2018-09-05T09:43:43.081Z,27.42
2018-09-05T09:46:11.340Z,28.73
2018-09-05T09:48:39.790Z,27.93
2018-09-05T09:51:08.042Z,28.10
2018-09-05T09:53:36.411Z,27.00
2018-09-05T09:56:04.827Z,27.20
2018-09-05T09:58:33.076Z,27.10
2018-09-05T10:01:06.792Z,30.32
2018-09-05T10:03:40.991Z,28.00
2018-09-05T10:06:14.477Z,25.23
2018-09-05T10:08:48.320Z,25.17
2018-09-05T10:11:17.953Z,27.25
2018-09-05T10:13:51.745Z,26.65
2018-09-05T10:16:25.512Z,29.75
2018-09-05T10:18:54.309Z,23.70
2018-09-05T10:21:22.947Z,20.20
2018-09-05T10:23:51.179Z,24.00
2018-09-05T10:26:19.454Z,20.92
2018-09-05T10:28:47.669Z,25.97
2018-09-05T10:31:15.930Z,23.32
2018-09-05T10:33:44.183Z,26.62
2018-09-05T10:36:12.419Z,26.87
2018-09-05T10:38:40.704Z,26.95
2018-09-05T10:41:08.950Z,23.40
2018-09-05T10:43:37.205Z,26.48
2018-09-05T10:46:05.518Z,23.12
2018-09-05T10:48:33.843Z,24.32
2018-09-05T10:51:02.107Z,24.15
2018-09-05T10:53:30.388Z,23.98
2018-09-05T10:55:58.618Z,21.27
2018-09-05T10:58:26.889Z,21.00
2018-09-05T11:00:55.101Z,23.62
2018-09-05T11:03:23.303Z,25.75
2018-09-05T11:05:51.551Z,22.35
2018-09-05T11:08:20.719Z,22.67
2018-09-05T11:10:49.005Z,17.62
2018-09-05T11:13:17.181Z,17.85
2018-09-05T11:15:45.383Z,15.93
2018-09-05T11:18:13.596Z,20.08
2018-09-05T11:20:41.894Z,20.70
2018-09-05T11:23:16.607Z,19.02
2018-09-05T11:25:45.841Z,19.23
2018-09-05T11:28:14.058Z,14.28
2018-09-05T11:30:42.357Z,13.80
2018-09-05T11:33:10.565Z,16.87
2018-09-05T11:35:38.994Z,15.03
2018-09-05T11:38:07.189Z,13.13
2018-09-05T11:40:35.561Z,15.72
2018-09-05T11:43:04.646Z,14.38
2018-09-05T11:45:32.846Z,15.23
2018-09-05T11:48:01.118Z,12.63
2018-09-05T11:50:29.318Z,17.95
2018-09-05T11:52:58.808Z,14.87
2018-09-05T11:55:27.200Z,11.70
2018-09-05T11:57:55.429Z,12.43
2018-09-05T12:00:23.653Z,11.95
2018-09-05T12:02:51.857Z,11.70
2018-09-05T12:05:21.102Z,15.32
2018-09-05T12:07:49.341Z,12.90
2018-09-05T12:10:17.557Z,12.85
2018-09-05T12:12:45.763Z,15.70
2018-09-05T12:15:14.001Z,12.63
2018-09-05T12:17:42.258Z,13.30
2018-09-05T12:20:10.778Z,14.95
2018-09-05T12:22:38.959Z,14.68
2018-09-05T12:25:07.193Z,14.90
2018-09-05T12:27:35.518Z,13.08
2018-09-05T12:30:03.818Z,13.50
2018-09-05T12:32:32.046Z,16.85
2018-09-05T12:35:00.291Z,13.48
2018-09-05T12:37:28.562Z,13.08
2018-09-05T12:39:56.960Z,15.05
2018-09-05T12:42:25.170Z,17.45
2018-09-05T12:44:53.419Z,16.70
2018-09-05T12:47:21.721Z,13.40
2018-09-05T12:49:50.038Z,11.95
2018-09-05T12:52:18.267Z,13.80
2018-09-05T12:54:46.563Z,15.75
2018-09-05T12:57:14.825Z,14.00
2018-09-05T12:59:43.152Z,14.80
2018-09-05T13:02:11.412Z,15.93
2018-09-05T13:04:39.697Z,14.28
2018-09-05T13:07:07.973Z,13.95
2018-09-05T13:09:36.174Z,14.40
2018-09-05T13:12:04.614Z,15.55
2018-09-05T13:14:32.817Z,14.20
2018-09-05T13:17:01.067Z,13.78
2018-09-05T13:19:29.355Z,14.15
2018-09-05T13:21:57.809Z,14.75
2018-09-05T13:24:26.310Z,14.33
2018-09-05T13:26:54.887Z,14.87
2018-09-05T13:29:23.089Z,14.20
2018-09-05T13:31:51.370Z,18.12
2018-09-05T13:34:20.054Z,14.18
2018-09-05T13:36:48.254Z,16.32
2018-09-05T13:39:16.481Z,13.50
2018-09-05T13:41:44.684Z,15.32
2018-09-05T13:44:13.064Z,11.25
2018-09-05T13:46:41.410Z,14.80
2018-09-05T13:49:09.625Z,11.93
2018-09-05T13:51:37.974Z,12.37
2018-09-05T13:54:06.296Z,13.45
2018-09-05T13:56:34.646Z,12.65
2018-09-05T13:59:03.309Z,13.43
2018-09-05T14:01:31.554Z,13.93
2018-09-05T14:03:59.779Z,12.33
2018-09-05T14:06:28.590Z,11.08
2018-09-05T14:08:56.946Z,17.20
2018-09-05T14:11:25.149Z,12.15
2018-09-05T14:13:53.353Z,11.60
2018-09-05T14:16:21.571Z,13.40
2018-09-05T14:18:50.290Z,12.80
2018-09-05T14:21:18.501Z,14.68
2018-09-05T14:23:46.699Z,12.30
2018-09-05T14:26:14.909Z,12.07
2018-09-05T14:28:43.167Z,12.03
2018-09-05T14:31:12.246Z,13.13
2018-09-05T14:33:40.478Z,12.18
2018-09-05T14:36:08.686Z,11.60
2018-09-05T14:38:36.937Z,13.43
2018-09-05T14:41:05.313Z,14.20
2018-09-05T14:43:33.760Z,14.18
2018-09-05T14:46:01.999Z,11.28
2018-09-05T14:48:30.250Z,12.35
2018-09-05T14:50:58.572Z,12.78
2018-09-05T14:53:27.014Z,16.52
2018-09-05T14:55:55.358Z,13.95
2018-09-05T14:58:23.747Z,12.43
2018-09-05T15:03:55.013Z,13.20
2018-09-05T15:06:23.289Z,12.10
2018-09-05T15:08:51.469Z,11.60
2018-09-05T15:11:19.814Z,11.65
2018-09-05T15:13:48.090Z,12.73
2018-09-05T15:16:16.320Z,11.25
2018-09-05T15:18:45.169Z,11.20
2018-09-05T15:21:13.552Z,13.18
2018-09-05T15:23:41.953Z,12.13
2018-09-05T15:26:10.150Z,10.72
2018-09-05T15:28:38.391Z,12.75
2018-09-05T15:31:06.611Z,10.95
2018-09-05T15:33:34.946Z,12.07
2018-09-05T15:36:03.162Z,10.88
2018-09-05T15:38:31.422Z,13.93
2018-09-05T15:40:59.852Z,10.35
2018-09-05T15:43:28.177Z,11.93
2018-09-05T15:45:56.451Z,11.33
2018-09-05T15:48:24.682Z,10.23
2018-09-05T15:50:53.009Z,13.40
2018-09-05T15:53:21.200Z,11.33
2018-09-05T15:55:49.511Z,10.98
2018-09-05T15:58:17.750Z,11.55
2018-09-05T16:00:45.973Z,14.40
2018-09-05T16:03:14.245Z,13.15
2018-09-05T16:05:42.554Z,12.37
2018-09-05T16:08:10.871Z,12.07
2018-09-05T16:10:40.143Z,15.00
2018-09-05T16:13:08.377Z,10.88
2018-09-05T16:15:36.993Z,11.48
2018-09-05T16:18:05.203Z,11.65
2018-09-05T16:20:34.487Z,12.55
2018-09-05T16:23:02.769Z,13.13
2018-09-05T16:25:31.026Z,11.85
2018-09-05T16:27:59.241Z,12.50
2018-09-05T16:30:27.642Z,13.32
2018-09-05T16:32:55.993Z,11.80
2018-09-05T16:35:24.249Z,12.30
2018-09-05T16:37:52.560Z,13.38
2018-09-05T16:40:21.326Z,12.85
2018-09-05T16:42:49.948Z,14.20
2018-09-05T16:45:18.425Z,14.05
2018-09-05T16:47:46.837Z,13.70
2018-09-05T16:50:15.180Z,13.13
2018-09-05T16:52:43.610Z,15.65
2018-09-05T16:55:12.846Z,15.10
2018-09-05T16:57:41.163Z,14.00
2018-09-05T17:00:09.711Z,14.47
2018-09-05T17:02:38.273Z,13.03
2018-09-05T17:05:07.420Z,14.93
2018-09-05T17:07:35.889Z,15.38
2018-09-05T17:10:04.140Z,16.33
2018-09-05T17:12:32.309Z,16.07
2018-09-05T17:15:00.498Z,12.37
2018-09-05T17:17:29.146Z,16.27
2018-09-05T17:19:57.386Z,18.30
2018-09-05T17:22:25.610Z,15.00
2018-09-05T17:24:53.789Z,15.13
2018-09-05T17:27:21.976Z,15.70
2018-09-05T17:29:50.318Z,13.00
2018-09-05T17:32:18.608Z,17.93
2018-09-05T17:34:46.798Z,17.17
2018-09-05T17:37:15.027Z,16.47
2018-09-05T17:39:43.400Z,14.57
2018-09-05T17:42:11.719Z,15.10
2018-09-05T17:44:39.906Z,13.03
2018-09-05T17:47:09.818Z,13.67
2018-09-05T17:49:38.059Z,14.13
2018-09-05T17:52:06.370Z,15.13
2018-09-05T17:54:34.617Z,17.40
2018-09-05T17:57:03.178Z,14.50
2018-09-05T17:59:31.381Z,15.07
2018-09-05T18:01:59.717Z,14.33
2018-09-05T18:04:27.954Z,16.47
2018-09-05T18:06:56.346Z,16.97
2018-09-05T18:09:24.535Z,17.07
2018-09-05T18:11:52.743Z,27.73
2018-09-05T18:14:21.223Z,25.20
2018-09-05T18:16:50.830Z,16.80
2018-09-05T18:19:19.245Z,14.20
2018-09-05T18:21:47.492Z,15.17
2018-09-05T18:24:15.942Z,17.80
2018-09-05T18:26:44.182Z,21.37
2018-09-05T18:29:12.677Z,22.50
2018-09-05T18:31:40.893Z,20.10
2018-09-05T18:34:09.139Z,15.43
2018-09-05T18:36:37.417Z,16.23
2018-09-05T18:39:07.148Z,43.07
2018-09-05T18:41:35.813Z,24.63
2018-09-05T18:44:04.147Z,121.57
2018-09-05T18:46:32.353Z,17.57
2018-09-05T18:49:00.592Z,19.23
2018-09-05T18:51:28.921Z,22.43
2018-09-05T18:53:57.242Z,16.33
2018-09-05T18:56:25.507Z,18.57
2018-09-05T18:58:53.776Z,25.60
2018-09-05T19:01:22.113Z,22.07
2018-09-05T19:03:50.754Z,18.87
2018-09-05T19:06:19.890Z,17.57
2018-09-05T19:08:48.166Z,16.83
2018-09-05T19:11:16.561Z,17.13
2018-09-05T19:13:45.314Z,24.47
2018-09-05T19:16:13.703Z,29.13
2018-09-05T19:18:42.268Z,39.60
2018-09-05T19:21:10.577Z,32.30
2018-09-05T19:23:38.926Z,22.73
2018-09-05T19:26:07.329Z,22.97
2018-09-05T19:28:35.537Z,41.23
2018-09-05T19:31:03.757Z,23.80
2018-09-05T19:33:32.010Z,23.53
2018-09-05T19:36:00.250Z,78.67
2018-09-05T19:38:28.538Z,40.00
2018-09-05T19:40:56.959Z,37.27
2018-09-05T19:43:25.182Z,37.53
2018-09-05T19:45:53.402Z,26.87
2018-09-05T19:48:21.625Z,27.17
2018-09-05T19:50:49.893Z,22.37
2018-09-05T19:53:18.170Z,23.83
2018-09-05T19:55:46.430Z,23.40
2018-09-05T19:58:14.721Z,22.73
2018-09-05T20:00:42.997Z,37.00
2018-09-05T20:03:11.512Z,29.63
2018-09-05T20:05:39.880Z,22.23
2018-09-05T20:08:08.543Z,22.00
2018-09-05T20:10:36.740Z,25.10
2018-09-05T20:13:05.618Z,22.37
2018-09-05T20:15:34.470Z,25.73
2018-09-05T20:18:02.711Z,24.63
2018-09-05T20:20:31.152Z,22.47
2018-09-05T20:22:59.366Z,25.90
2018-09-05T20:25:28.856Z,23.63
2018-09-05T20:27:57.309Z,23.17
2018-09-05T20:30:25.530Z,20.27
2018-09-05T20:33:22.603Z,23.37
2018-09-05T20:35:52.048Z,22.97
2018-09-05T20:38:20.483Z,21.57
2018-09-05T20:41:00.279Z,20.90
2018-09-05T20:43:28.724Z,24.10
2018-09-05T20:45:56.961Z,20.90
2018-09-05T20:48:25.198Z,24.23
2018-09-05T20:50:53.440Z,21.80
2018-09-05T20:53:21.814Z,23.20
2018-09-05T20:55:50.441Z,26.03
2018-09-05T20:58:18.713Z,23.10
2018-09-05T21:00:46.941Z,22.97
2018-09-05T21:03:15.146Z,23.27
2018-09-05T21:05:43.580Z,24.20
2018-09-05T21:08:11.795Z,22.87
2018-09-05T21:10:39.961Z,26.47
2018-09-05T21:13:08.364Z,22.93
2018-09-05T21:15:36.664Z,22.13
2018-09-05T21:18:05.099Z,24.37
2018-09-05T21:20:33.177Z,24.30
2018-09-05T21:23:01.374Z,26.00
2018-09-05T21:25:29.630Z,25.37
2018-09-05T21:27:57.953Z,23.03
2018-09-05T21:30:26.152Z,23.43
2018-09-05T21:32:54.354Z,24.13
2018-09-05T21:35:22.642Z,25.13
2018-09-05T21:37:51.084Z,26.43
2018-09-05T21:40:19.442Z,22.67
2018-09-05T21:42:47.646Z,23.97
2018-09-05T21:45:16.229Z,24.90
2018-09-05T21:47:44.417Z,28.77
2018-09-05T21:50:12.744Z,24.17
2018-09-05T21:52:41.097Z,27.17
2018-09-05T21:55:09.368Z,28.40
2018-09-05T21:57:37.563Z,25.97
2018-09-05T22:00:06.998Z,28.47
2018-09-05T22:02:35.605Z,27.93
2018-09-05T22:05:04.138Z,26.17
2018-09-05T22:07:32.335Z,28.77
2018-09-05T22:10:01.129Z,29.13
2018-09-05T22:12:29.448Z,29.20
2018-09-05T22:14:58.037Z,28.80
2018-09-05T22:17:26.214Z,25.63
2018-09-05T22:19:54.460Z,28.97
2018-09-05T22:22:22.654Z,30.87
2018-09-05T22:24:51.057Z,29.13
2018-09-05T22:27:19.834Z,30.83
2018-09-05T22:29:48.052Z,27.97
2018-09-05T22:32:16.383Z,33.63
2018-09-05T22:34:44.579Z,32.03
2018-09-05T22:37:13.843Z,30.87
2018-09-05T22:39:42.490Z,30.07
2018-09-05T22:42:12.963Z,30.50
2018-09-05T22:44:53.741Z,27.63
2018-09-05T22:47:33.249Z,31.70
2018-09-05T22:50:16.106Z,31.63
2018-09-05T22:55:02.059Z,27.60
2018-09-05T22:57:47.172Z,29.83
2018-09-05T23:00:49.115Z,31.27
2018-09-05T23:06:35.014Z,29.90
2018-09-05T23:09:03.805Z,34.60
2018-09-05T23:11:55.610Z,28.70
2018-09-05T23:14:34.102Z,28.33
2018-09-05T23:17:24.727Z,30.83
2018-09-05T23:21:04.749Z,30.13
2018-09-05T23:24:06.322Z,30.47
2018-09-05T23:26:34.526Z,29.30
2018-09-05T23:29:02.797Z,32.00
2018-09-05T23:31:31.017Z,32.80
2018-09-05T23:33:59.379Z,34.00
2018-09-05T23:36:29.675Z,30.30
2018-09-05T23:38:58.671Z,30.13
2018-09-05T23:41:27.746Z,32.13
2018-09-05T23:43:56.188Z,32.43
2018-09-05T23:46:24.601Z,32.27
2018-09-05T23:48:52.866Z,29.97
2018-09-05T23:51:21.420Z,26.30
2018-09-05T23:53:49.606Z,31.93
2018-09-05T23:56:18.023Z,26.93
2018-09-05T23:58:46.298Z,29.30
